sensor_id;sensor_type;location;lat;lon;timestamp;pressure;altitude;pressure_sealevel;temperature;humidity
44765;BME280;30484;52.382;5.260;2023-02-10T00:00:15;103600.97;;;4.62;100.00
44765;BME280;30484;52.382;5.260;2023-02-10T00:02:44;103600.94;;;4.59;100.00
44765;BME280;30484;52.382;5.260;2023-02-10T00:05:14;103601.72;;;4.55;100.00
44765;BME280;30484;52.382;5.260;2023-02-10T00:07:44;103596.47;;;4.58;100.00
44765;BME280;30484;52.382;5.260;2023-02-10T00:10:13;103596.47;;;4.58;100.00
44765;BME280;30484;52.382;5.260;2023-02-10T00:12:44;103597.28;;;4.54;100.00
44765;BME280;30484;52.382;5.260;2023-02-10T00:15:12;103602.59;;;4.54;100.00
44765;BME280;30484;52.382;5.260;2023-02-10T00:17:41;103602.84;;;4.68;100.00
44765;BME280;30484;52.382;5.260;2023-02-10T00:20:11;103616.31;;;4.79;100.00
44765;BME280;30484;52.382;5.260;2023-02-10T00:22:40;103607.44;;;4.77;100.00
44765;BME280;30484;52.382;5.260;2023-02-10T00:25:08;103607.53;;;4.83;100.00
44765;BME280;30484;52.382;5.260;2023-02-10T00:27:37;103593.31;;;4.76;100.00
44765;BME280;30484;52.382;5.260;2023-02-10T00:30:09;103603.97;;;4.81;100.00
44765;BME280;30484;52.382;5.260;2023-02-10T00:32:37;103601.19;;;4.73;100.00
44765;BME280;30484;52.382;5.260;2023-02-10T00:35:07;103596.72;;;4.71;100.00
44765;BME280;30484;52.382;5.260;2023-02-10T00:37:37;103606.53;;;4.76;100.00
44765;BME280;30484;52.382;5.260;2023-02-10T00:40:06;103613.69;;;4.80;100.00
44765;BME280;30484;52.382;5.260;2023-02-10T00:42:35;103600.34;;;4.76;100.00
44765;BME280;30484;52.382;5.260;2023-02-10T00:45:05;103607.38;;;4.74;100.00
44765;BME280;30484;52.382;5.260;2023-02-10T00:47:35;103596.75;;;4.72;100.00
44765;BME280;30484;52.382;5.260;2023-02-10T00:50:05;103587.00;;;4.71;100.00
44765;BME280;30484;52.382;5.260;2023-02-10T00:52:34;103593.31;;;4.78;100.00
44765;BME280;30484;52.382;5.260;2023-02-10T00:55:03;103596.00;;;4.79;100.00
44765;BME280;30484;52.382;5.260;2023-02-10T00:57:32;103606.53;;;4.75;100.00
44765;BME280;30484;52.382;5.260;2023-02-10T01:00:00;103612.66;;;4.74;100.00
44765;BME280;30484;52.382;5.260;2023-02-10T01:02:29;103609.00;;;4.67;100.00
44765;BME280;30484;52.382;5.260;2023-02-10T01:05:00;103603.63;;;4.62;100.00
44765;BME280;30484;52.382;5.260;2023-02-10T01:07:31;103612.44;;;4.61;100.00
44765;BME280;30484;52.382;5.260;2023-02-10T01:10:00;103621.25;;;4.60;100.00
44765;BME280;30484;52.382;5.260;2023-02-10T01:12:30;103619.47;;;4.59;100.00
44765;BME280;30484;52.382;5.260;2023-02-10T01:14:58;103631.75;;;4.57;100.00
44765;BME280;30484;52.382;5.260;2023-02-10T01:17:27;103636.94;;;4.51;100.00
44765;BME280;30484;52.382;5.260;2023-02-10T01:19:59;103642.19;;;4.48;100.00
44765;BME280;30484;52.382;5.260;2023-02-10T01:22:27;103649.13;;;4.43;100.00
44765;BME280;30484;52.382;5.260;2023-02-10T01:24:56;103644.78;;;4.45;100.00
44765;BME280;30484;52.382;5.260;2023-02-10T01:27:25;103639.47;;;4.43;100.00
44765;BME280;30484;52.382;5.260;2023-02-10T01:29:54;103640.28;;;4.41;100.00
44765;BME280;30484;52.382;5.260;2023-02-10T01:32:22;103631.41;;;4.40;100.00
44765;BME280;30484;52.382;5.260;2023-02-10T01:34:52;103635.03;;;4.44;100.00
44765;BME280;30484;52.382;5.260;2023-02-10T01:37:22;103635.00;;;4.42;100.00
44765;BME280;30484;52.382;5.260;2023-02-10T01:39:50;103635.78;;;4.37;100.00
44765;BME280;30484;52.382;5.260;2023-02-10T01:42:19;103635.84;;;4.40;100.00
44765;BME280;30484;52.382;5.260;2023-02-10T01:45:24;103632.88;;;4.24;100.00
44765;BME280;30484;52.382;5.260;2023-02-10T01:47:55;103640.00;;;4.28;100.00
44765;BME280;30484;52.382;5.260;2023-02-10T01:50:28;103635.66;;;4.30;100.00
44765;BME280;30484;52.382;5.260;2023-02-10T01:53:02;103631.97;;;4.24;100.00
44765;BME280;30484;52.382;5.260;2023-02-10T01:55:34;103637.16;;;4.18;100.00
44765;BME280;30484;52.382;5.260;2023-02-10T01:58:07;103632.75;;;4.18;100.00
44765;BME280;30484;52.382;5.260;2023-02-10T02:00:37;103634.59;;;4.22;100.00
44765;BME280;30484;52.382;5.260;2023-02-10T02:03:08;103638.97;;;4.22;100.00
44765;BME280;30484;52.382;5.260;2023-02-10T02:05:39;103637.41;;;4.31;100.00
44765;BME280;30484;52.382;5.260;2023-02-10T02:08:13;103641.97;;;4.39;100.00
44765;BME280;30484;52.382;5.260;2023-02-10T02:11:09;103631.19;;;4.28;100.00
44765;BME280;30484;52.382;5.260;2023-02-10T02:14:07;103641.13;;;4.40;100.00
44765;BME280;30484;52.382;5.260;2023-02-10T02:16:54;103647.25;;;4.37;100.00
44765;BME280;30484;52.382;5.260;2023-02-10T02:20:15;103645.41;;;4.33;100.00
44765;BME280;30484;52.382;5.260;2023-02-10T02:23:54;103633.97;;;4.36;100.00
44765;BME280;30484;52.382;5.260;2023-02-10T02:30:18;103641.13;;;4.40;100.00
44765;BME280;30484;52.382;5.260;2023-02-10T02:32:56;103640.97;;;4.32;100.00
44765;BME280;30484;52.382;5.260;2023-02-10T02:35:31;103643.72;;;4.37;100.00
44765;BME280;30484;52.382;5.260;2023-02-10T02:38:01;103646.41;;;4.38;100.00
44765;BME280;30484;52.382;5.260;2023-02-10T02:40:30;103641.22;;;4.44;100.00
44765;BME280;30484;52.382;5.260;2023-02-10T02:42:59;103649.19;;;4.46;100.00
44765;BME280;30484;52.382;5.260;2023-02-10T02:45:36;103643.59;;;4.30;100.00
44765;BME280;30484;52.382;5.260;2023-02-10T02:48:22;103651.69;;;4.38;100.00
44765;BME280;30484;52.382;5.260;2023-02-10T02:51:02;103646.50;;;4.44;100.00
44765;BME280;30484;52.382;5.260;2023-02-10T02:53:38;103645.50;;;4.38;100.00
44765;BME280;30484;52.382;5.260;2023-02-10T02:56:20;103643.66;;;4.34;100.00
44765;BME280;30484;52.382;5.260;2023-02-10T02:58:55;103643.72;;;4.37;100.00
44765;BME280;30484;52.382;5.260;2023-02-10T03:01:32;103637.56;;;4.38;100.00
44765;BME280;30484;52.382;5.260;2023-02-10T03:04:06;103629.50;;;4.33;100.00
44765;BME280;30484;52.382;5.260;2023-02-10T03:06:36;103636.50;;;4.29;100.00
44765;BME280;30484;52.382;5.260;2023-02-10T03:09:04;103642.16;;;4.46;100.00
44765;BME280;30484;52.382;5.260;2023-02-10T03:11:33;103642.13;;;4.45;100.00
44765;BME280;30484;52.382;5.260;2023-02-10T03:14:05;103640.38;;;4.47;100.00
44765;BME280;30484;52.382;5.260;2023-02-10T03:16:34;103637.81;;;4.52;100.00
44765;BME280;30484;52.382;5.260;2023-02-10T03:19:08;103635.88;;;4.41;100.00
44765;BME280;30484;52.382;5.260;2023-02-10T03:21:38;103638.72;;;4.51;100.00
44765;BME280;30484;52.382;5.260;2023-02-10T03:24:09;103638.72;;;4.51;100.00
44765;BME280;30484;52.382;5.260;2023-02-10T03:26:37;103641.41;;;4.54;100.00
44765;BME280;30484;52.382;5.260;2023-02-10T03:29:09;103640.34;;;4.44;100.00
44765;BME280;30484;52.382;5.260;2023-02-10T03:31:38;103651.66;;;4.37;100.00
44765;BME280;30484;52.382;5.260;2023-02-10T03:34:08;103649.13;;;4.43;100.00
44765;BME280;30484;52.382;5.260;2023-02-10T03:36:38;103649.16;;;4.44;100.00
44765;BME280;30484;52.382;5.260;2023-02-10T03:39:07;103653.59;;;4.45;100.00
44765;BME280;30484;52.382;5.260;2023-02-10T03:41:36;103652.50;;;4.36;100.00
44765;BME280;30484;52.382;5.260;2023-02-10T03:44:04;103649.34;;;4.52;100.00
44765;BME280;30484;52.382;5.260;2023-02-10T03:46:33;103650.91;;;4.42;100.00
44765;BME280;30484;52.382;5.260;2023-02-10T03:49:04;103652.00;;;4.54;100.00
44765;BME280;30484;52.382;5.260;2023-02-10T03:51:35;103652.09;;;4.58;100.00
44765;BME280;30484;52.382;5.260;2023-02-10T03:54:04;103654.78;;;4.61;100.00
44765;BME280;30484;52.382;5.260;2023-02-10T03:56:33;103644.19;;;4.61;100.00
44765;BME280;30484;52.382;5.260;2023-02-10T03:59:02;103651.09;;;4.53;100.00
44765;BME280;30484;52.382;5.260;2023-02-10T04:01:31;103657.34;;;4.55;100.00
44765;BME280;30484;52.382;5.260;2023-02-10T04:04:00;103651.19;;;4.56;100.00
44765;BME280;30484;52.382;5.260;2023-02-10T04:06:29;103659.09;;;4.55;100.00
44765;BME280;30484;52.382;5.260;2023-02-10T04:08:59;103658.00;;;4.45;100.00
44765;BME280;30484;52.382;5.260;2023-02-10T04:11:28;103655.22;;;4.39;100.00
44765;BME280;30484;52.382;5.260;2023-02-10T04:13:57;103665.97;;;4.45;100.00
44765;BME280;30484;52.382;5.260;2023-02-10T04:16:26;103654.47;;;4.46;100.00
44765;BME280;30484;52.382;5.260;2023-02-10T04:18:56;103673.09;;;4.49;100.00
44765;BME280;30484;52.382;5.260;2023-02-10T04:21:26;103674.00;;;4.51;100.00
44765;BME280;30484;52.382;5.260;2023-02-10T04:23:54;103679.31;;;4.51;100.00
44765;BME280;30484;52.382;5.260;2023-02-10T04:26:25;103679.38;;;4.54;100.00
44765;BME280;30484;52.382;5.260;2023-02-10T04:28:56;103667.06;;;4.56;100.00
44765;BME280;30484;52.382;5.260;2023-02-10T04:31:25;103665.25;;;4.54;100.00
44765;BME280;30484;52.382;5.260;2023-02-10T04:33:54;103654.63;;;4.52;100.00
44765;BME280;30484;52.382;5.260;2023-02-10T04:36:22;103658.25;;;4.57;100.00
44765;BME280;30484;52.382;5.260;2023-02-10T04:38:52;103658.00;;;4.45;100.00
44765;BME280;30484;52.382;5.260;2023-02-10T04:41:21;103652.84;;;4.51;100.00
44765;BME280;30484;52.382;5.260;2023-02-10T04:43:51;103657.22;;;4.49;100.00
44765;BME280;30484;52.382;5.260;2023-02-10T04:46:19;103652.91;;;4.56;100.00
44765;BME280;30484;52.382;5.260;2023-02-10T04:48:49;103643.41;;;4.23;100.00
44765;BME280;30484;52.382;5.260;2023-02-10T04:51:17;103655.13;;;4.34;100.00
44765;BME280;30484;52.382;5.260;2023-02-10T04:53:46;103656.38;;;4.53;100.00
44765;BME280;30484;52.382;5.260;2023-02-10T04:56:15;103659.72;;;4.43;100.00
44765;BME280;30484;52.382;5.260;2023-02-10T04:58:43;103658.91;;;4.47;100.00
44765;BME280;30484;52.382;5.260;2023-02-10T05:01:14;103660.09;;;4.61;100.00
44765;BME280;30484;52.382;5.260;2023-02-10T05:03:43;103662.88;;;4.68;100.00
44765;BME280;30484;52.382;5.260;2023-02-10T05:06:14;103663.75;;;4.66;100.00
44765;BME280;30484;52.382;5.260;2023-02-10T05:08:44;103660.28;;;4.71;100.00
44765;BME280;30484;52.382;5.260;2023-02-10T05:11:14;103661.16;;;4.71;100.00
44765;BME280;30484;52.382;5.260;2023-02-10T05:13:44;103646.34;;;4.81;100.00
44765;BME280;30484;52.382;5.260;2023-02-10T05:16:14;103648.88;;;4.73;100.00
44765;BME280;30484;52.382;5.260;2023-02-10T05:18:44;103650.06;;;4.89;100.00
44765;BME280;30484;52.382;5.260;2023-02-10T05:21:13;103650.06;;;4.89;100.00
44765;BME280;30484;52.382;5.260;2023-02-10T05:23:42;103640.94;;;4.75;100.00
44765;BME280;30484;52.382;5.260;2023-02-10T05:26:11;103655.22;;;4.83;100.00
44765;BME280;30484;52.382;5.260;2023-02-10T05:28:40;103650.59;;;4.73;100.00
44765;BME280;30484;52.382;5.260;2023-02-10T05:31:08;103650.50;;;4.66;100.00
44765;BME280;30484;52.382;5.260;2023-02-10T05:33:39;103664.75;;;4.73;100.00
44765;BME280;30484;52.382;5.260;2023-02-10T05:36:08;103649.81;;;4.77;100.00
44765;BME280;30484;52.382;5.260;2023-02-10T05:38:36;103653.50;;;4.85;100.00
44765;BME280;30484;52.382;5.260;2023-02-10T05:41:05;103655.41;;;4.92;100.00
44765;BME280;30484;52.382;5.260;2023-02-10T05:43:33;103658.84;;;4.88;100.00
44765;BME280;30484;52.382;5.260;2023-02-10T05:46:02;103656.16;;;4.85;100.00
44765;BME280;30484;52.382;5.260;2023-02-10T05:48:31;103661.13;;;4.68;100.00
44765;BME280;30484;52.382;5.260;2023-02-10T05:51:01;103658.59;;;4.76;100.00
44765;BME280;30484;52.382;5.260;2023-02-10T05:53:30;103650.56;;;4.70;100.00
44765;BME280;30484;52.382;5.260;2023-02-10T05:55:58;103653.31;;;4.76;100.00
44765;BME280;30484;52.382;5.260;2023-02-10T05:58:26;103661.25;;;4.76;100.00
44765;BME280;30484;52.382;5.260;2023-02-10T06:01:00;103655.22;;;4.83;100.00
44765;BME280;30484;52.382;5.260;2023-02-10T06:03:28;103666.69;;;4.82;100.00
44765;BME280;30484;52.382;5.260;2023-02-10T06:05:57;103660.50;;;4.83;100.00
44765;BME280;30484;52.382;5.260;2023-02-10T06:08:27;103669.50;;;4.91;100.00
44765;BME280;30484;52.382;5.260;2023-02-10T06:10:56;103675.50;;;4.81;100.00
44765;BME280;30484;52.382;5.260;2023-02-10T06:13:24;103664.66;;;4.69;100.00
44765;BME280;30484;52.382;5.260;2023-02-10T06:15:53;103670.75;;;4.64;100.00
44765;BME280;30484;52.382;5.260;2023-02-10T06:18:22;103673.44;;;4.66;100.00
44765;BME280;30484;52.382;5.260;2023-02-10T06:20:50;103670.84;;;4.69;100.00
44765;BME280;30484;52.382;5.260;2023-02-10T06:23:19;103674.44;;;4.73;100.00
44765;BME280;30484;52.382;5.260;2023-02-10T06:25:51;103668.34;;;4.77;100.00
44765;BME280;30484;52.382;5.260;2023-02-10T06:28:22;103667.53;;;4.37;100.00
44765;BME280;30484;52.382;5.260;2023-02-10T06:30:50;103670.94;;;4.74;100.00
44765;BME280;30484;52.382;5.260;2023-02-10T06:33:19;103676.94;;;4.65;100.00
44765;BME280;30484;52.382;5.260;2023-02-10T06:35:48;103681.59;;;4.77;100.00
44765;BME280;30484;52.382;5.260;2023-02-10T06:38:17;103669.72;;;4.56;100.00
44765;BME280;30484;52.382;5.260;2023-02-10T06:40:45;103677.28;;;4.82;100.00
44765;BME280;30484;52.382;5.260;2023-02-10T06:43:15;103671.22;;;4.88;100.00
44765;BME280;30484;52.382;5.260;2023-02-10T06:45:44;103681.59;;;4.77;100.00
44765;BME280;30484;52.382;5.260;2023-02-10T06:48:13;103686.00;;;4.76;100.00
44765;BME280;30484;52.382;5.260;2023-02-10T06:50:42;103686.38;;;4.95;100.00
44765;BME280;30484;52.382;5.260;2023-02-10T06:53:10;103688.78;;;4.84;100.00
44765;BME280;30484;52.382;5.260;2023-02-10T06:55:39;103683.56;;;4.87;100.00
44765;BME280;30484;52.382;5.260;2023-02-10T06:58:08;103680.03;;;4.88;100.00
44765;BME280;30484;52.382;5.260;2023-02-10T07:00:38;103674.63;;;4.82;100.00
44765;BME280;30484;52.382;5.260;2023-02-10T07:03:07;103683.59;;;4.90;100.00
44765;BME280;30484;52.382;5.260;2023-02-10T07:05:36;103688.22;;;4.55;100.00
44765;BME280;30484;52.382;5.260;2023-02-10T07:08:05;103703.16;;;4.95;100.00
44765;BME280;30484;52.382;5.260;2023-02-10T07:10:35;103680.13;;;4.93;100.00
44765;BME280;30484;52.382;5.260;2023-02-10T07:13:04;103698.91;;;5.05;100.00
44765;BME280;30484;52.382;5.260;2023-02-10T07:15:33;103695.09;;;4.89;100.00
44765;BME280;30484;52.382;5.260;2023-02-10T07:18:03;103708.38;;;4.92;100.00
44765;BME280;30484;52.382;5.260;2023-02-10T07:20:32;103712.09;;;5.00;100.00
44765;BME280;30484;52.382;5.260;2023-02-10T07:23:00;103718.63;;;5.19;100.00
44765;BME280;30484;52.382;5.260;2023-02-10T07:25:29;103720.38;;;5.19;100.00
44765;BME280;30484;52.382;5.260;2023-02-10T07:28:00;103711.50;;;5.17;100.00
44765;BME280;30484;52.382;5.260;2023-02-10T07:30:29;103724.94;;;5.26;100.00
44765;BME280;30484;52.382;5.260;2023-02-10T07:32:58;103725.13;;;5.39;100.00
44765;BME280;30484;52.382;5.260;2023-02-10T07:35:29;103726.94;;;5.40;100.00
44765;BME280;30484;52.382;5.260;2023-02-10T07:37:58;103710.22;;;5.44;100.00
44765;BME280;30484;52.382;5.260;2023-02-10T07:40:27;103718.84;;;5.32;100.00
44765;BME280;30484;52.382;5.260;2023-02-10T07:42:57;103717.09;;;5.32;100.00
44765;BME280;30484;52.382;5.260;2023-02-10T07:45:26;103714.72;;;5.48;100.00
44765;BME280;30484;52.382;5.260;2023-02-10T07:48:00;103718.34;;;5.53;100.00
44765;BME280;30484;52.382;5.260;2023-02-10T07:50:30;103722.72;;;5.51;100.00
44765;BME280;30484;52.382;5.260;2023-02-10T07:53:01;103729.75;;;5.49;100.00
44765;BME280;30484;52.382;5.260;2023-02-10T07:55:29;103727.22;;;5.57;100.00
44765;BME280;30484;52.382;5.260;2023-02-10T07:57:59;103726.94;;;5.40;100.00
44765;BME280;30484;52.382;5.260;2023-02-10T08:00:28;103730.16;;;5.72;100.00
44765;BME280;30484;52.382;5.260;2023-02-10T08:02:57;103725.66;;;5.69;100.00
44765;BME280;30484;52.382;5.260;2023-02-10T08:05:26;103724.00;;;5.75;100.00
44765;BME280;30484;52.382;5.260;2023-02-10T08:07:56;103722.13;;;5.67;100.00
44765;BME280;30484;52.382;5.260;2023-02-10T08:10:25;103719.97;;;6.00;100.00
44765;BME280;30484;52.382;5.260;2023-02-10T08:12:54;103723.41;;;5.94;100.00
44765;BME280;30484;52.382;5.260;2023-02-10T08:15:22;103729.63;;;5.95;100.00
44765;BME280;30484;52.382;5.260;2023-02-10T08:17:53;103727.69;;;5.83;100.00
44765;BME280;30484;52.382;5.260;2023-02-10T08:20:21;103723.28;;;5.86;100.00
44765;BME280;30484;52.382;5.260;2023-02-10T08:22:54;103723.25;;;5.83;100.00
44765;BME280;30484;52.382;5.260;2023-02-10T08:25:24;103721.78;;;6.01;100.00
44765;BME280;30484;52.382;5.260;2023-02-10T08:27:55;103719.34;;;6.15;100.00
44765;BME280;30484;52.382;5.260;2023-02-10T08:30:26;103730.59;;;6.00;100.00
44765;BME280;30484;52.382;5.260;2023-02-10T08:32:55;103735.06;;;6.01;100.00
44765;BME280;30484;52.382;5.260;2023-02-10T08:35:23;103724.63;;;6.13;100.00
44765;BME280;30484;52.382;5.260;2023-02-10T08:37:52;103719.97;;;5.98;100.00
44765;BME280;30484;52.382;5.260;2023-02-10T08:40:21;103725.63;;;6.20;100.00
44765;BME280;30484;52.382;5.260;2023-02-10T08:42:51;103728.16;;;6.14;100.00
44765;BME280;30484;52.382;5.260;2023-02-10T08:45:20;103723.00;;;6.23;100.00
44765;BME280;30484;52.382;5.260;2023-02-10T08:47:50;103727.59;;;6.36;100.00
44765;BME280;30484;52.382;5.260;2023-02-10T08:50:19;103727.50;;;6.29;100.00
44765;BME280;30484;52.382;5.260;2023-02-10T08:52:48;103730.16;;;6.27;100.00
44765;BME280;30484;52.382;5.260;2023-02-10T08:55:17;103727.00;;;6.56;100.00
44765;BME280;30484;52.382;5.260;2023-02-10T08:57:46;103741.91;;;6.46;100.00
44765;BME280;30484;52.382;5.260;2023-02-10T09:00:18;103744.97;;;6.77;100.00
44765;BME280;30484;52.382;5.260;2023-02-10T09:02:49;103737.63;;;6.56;100.00
44765;BME280;30484;52.382;5.260;2023-02-10T09:05:18;103732.47;;;6.68;100.00
44765;BME280;30484;52.382;5.260;2023-02-10T09:07:47;103742.47;;;6.93;100.00
44765;BME280;30484;52.382;5.260;2023-02-10T09:10:16;103755.88;;;7.00;100.00
44765;BME280;30484;52.382;5.260;2023-02-10T09:12:48;103742.91;;;7.30;100.00
44765;BME280;30484;52.382;5.260;2023-02-10T09:15:19;103738.47;;;7.30;100.00
44765;BME280;30484;52.382;5.260;2023-02-10T09:17:47;103732.22;;;7.26;100.00
44765;BME280;30484;52.382;5.260;2023-02-10T09:20:16;103725.97;;;7.21;100.00
44765;BME280;30484;52.382;5.260;2023-02-10T09:22:45;103726.16;;;7.41;100.00
44765;BME280;30484;52.382;5.260;2023-02-10T09:25:15;103738.41;;;7.24;100.00
44765;BME280;30484;52.382;5.260;2023-02-10T09:27:43;103736.78;;;7.38;100.00
44765;BME280;30484;52.382;5.260;2023-02-10T09:30:13;103740.47;;;7.56;100.00
44765;BME280;30484;52.382;5.260;2023-02-10T09:32:43;103741.38;;;7.59;100.00
44765;BME280;30484;52.382;5.260;2023-02-10T09:35:11;103737.34;;;7.11;100.00
44765;BME280;30484;52.382;5.260;2023-02-10T09:37:40;103741.50;;;7.72;100.00
44765;BME280;30484;52.382;5.260;2023-02-10T09:40:15;103734.47;;;7.78;100.00
44765;BME280;30484;52.382;5.260;2023-02-10T09:43:02;103727.44;;;7.88;100.00
44765;BME280;30484;52.382;5.260;2023-02-10T09:45:36;103734.59;;;7.99;100.00
44765;BME280;30484;52.382;5.260;2023-02-10T09:48:25;103735.50;;;8.01;100.00
44765;BME280;30484;52.382;5.260;2023-02-10T09:51:05;103735.59;;;8.18;100.00
44765;BME280;30484;52.382;5.260;2023-02-10T09:53:40;103741.19;;;8.58;100.00
44765;BME280;30484;52.382;5.260;2023-02-10T09:56:16;103731.50;;;8.72;100.00
44765;BME280;30484;52.382;5.260;2023-02-10T09:58:49;103736.03;;;9.06;100.00
44765;BME280;30484;52.382;5.260;2023-02-10T10:01:22;103727.22;;;9.65;100.00
44765;BME280;30484;52.382;5.260;2023-02-10T10:03:58;103718.34;;;9.46;100.00
44765;BME280;30484;52.382;5.260;2023-02-10T10:06:30;103729.88;;;10.04;100.00
44765;BME280;30484;52.382;5.260;2023-02-10T10:09:11;103722.75;;;9.95;100.00
44765;BME280;30484;52.382;5.260;2023-02-10T10:11:45;103726.28;;;10.21;100.00
44765;BME280;30484;52.382;5.260;2023-02-10T10:14:18;103717.44;;;9.72;100.00
44765;BME280;30484;52.382;5.260;2023-02-10T10:17:21;103724.50;;;10.16;100.00
44765;BME280;30484;52.382;5.260;2023-02-10T10:20:23;103718.19;;;10.48;100.00
44765;BME280;30484;52.382;5.260;2023-02-10T10:23:13;103738.56;;;10.80;100.00
44765;BME280;30484;52.382;5.260;2023-02-10T10:25:57;103735.50;;;11.45;100.00
44765;BME280;30484;52.382;5.260;2023-02-10T10:28:44;103732.13;;;11.14;100.00
44765;BME280;30484;52.382;5.260;2023-02-10T10:31:18;103742.50;;;11.58;100.00
44765;BME280;30484;52.382;5.260;2023-02-10T10:33:51;103744.25;;;11.69;100.00
44765;BME280;30484;52.382;5.260;2023-02-10T10:36:29;103747.63;;;11.96;100.00
44765;BME280;30484;52.382;5.260;2023-02-10T10:39:08;103741.53;;;11.70;100.00
44765;BME280;30484;52.382;5.260;2023-02-10T10:41:38;103739.53;;;12.00;100.00
44765;BME280;30484;52.382;5.260;2023-02-10T10:44:11;103734.88;;;12.16;100.00
44765;BME280;30484;52.382;5.260;2023-02-10T10:46:46;103732.34;;;12.01;100.00
44765;BME280;30484;52.382;5.260;2023-02-10T10:49:17;103729.31;;;12.35;100.00
44765;BME280;30484;52.382;5.260;2023-02-10T10:51:49;103731.75;;;11.68;100.00
44765;BME280;30484;52.382;5.260;2023-02-10T10:54:21;103735.97;;;11.95;100.00
44765;BME280;30484;52.382;5.260;2023-02-10T10:56:53;103732.38;;;11.99;100.00
44765;BME280;30484;52.382;5.260;2023-02-10T10:59:31;103736.09;;;11.78;100.00
44765;BME280;30484;52.382;5.260;2023-02-10T11:02:12;103733.41;;;11.81;100.00
44765;BME280;30484;52.382;5.260;2023-02-10T11:04:41;103727.69;;;11.10;100.00
44765;BME280;30484;52.382;5.260;2023-02-10T11:07:19;103714.13;;;11.39;100.00
44765;BME280;30484;52.382;5.260;2023-02-10T11:09:51;103721.81;;;11.81;100.00
44765;BME280;30484;52.382;5.260;2023-02-10T11:12:24;103713.63;;;11.99;100.00
44765;BME280;30484;52.382;5.260;2023-02-10T11:14:55;103712.91;;;11.79;100.00
44765;BME280;30484;52.382;5.260;2023-02-10T11:17:30;103715.56;;;11.77;100.00
44765;BME280;30484;52.382;5.260;2023-02-10T11:20:04;103708.91;;;12.23;100.00
44765;BME280;30484;52.382;5.260;2023-02-10T11:22:34;103695.41;;;12.31;100.00
44765;BME280;30484;52.382;5.260;2023-02-10T11:25:26;103693.91;;;12.05;100.00
44765;BME280;30484;52.382;5.260;2023-02-10T11:27:57;103692.94;;;12.11;100.00
44765;BME280;30484;52.382;5.260;2023-02-10T11:30:32;103689.03;;;11.52;100.00
44765;BME280;30484;52.382;5.260;2023-02-10T11:33:03;103693.81;;;12.13;100.00
44765;BME280;30484;52.382;5.260;2023-02-10T11:35:33;103695.53;;;12.21;100.00
44765;BME280;30484;52.382;5.260;2023-02-10T11:38:14;103696.22;;;12.37;100.00
44765;BME280;30484;52.382;5.260;2023-02-10T11:40:51;103681.97;;;12.32;100.00
44765;BME280;30484;52.382;5.260;2023-02-10T11:43:29;103691.19;;;12.08;100.00
44765;BME280;30484;52.382;5.260;2023-02-10T11:46:01;103683.59;;;12.44;100.00
44765;BME280;30484;52.382;5.260;2023-02-10T11:48:31;103683.09;;;12.11;100.00
44765;BME280;30484;52.382;5.260;2023-02-10T11:51:04;103680.22;;;12.33;100.00
44765;BME280;30484;52.382;5.260;2023-02-10T11:53:37;103691.34;;;11.89;100.00
44765;BME280;30484;52.382;5.260;2023-02-10T11:56:15;103695.00;;;12.65;100.00
44765;BME280;30484;52.382;5.260;2023-02-10T11:59:01;103694.16;;;12.58;100.00
44765;BME280;30484;52.382;5.260;2023-02-10T12:01:49;103696.66;;;12.73;100.00
44765;BME280;30484;52.382;5.260;2023-02-10T12:04:58;103693.16;;;12.67;100.00
44765;BME280;30484;52.382;5.260;2023-02-10T12:07:43;103691.16;;;12.81;100.00
44765;BME280;30484;52.382;5.260;2023-02-10T12:10:23;103692.88;;;12.87;100.00
44765;BME280;30484;52.382;5.260;2023-02-10T12:12:58;103689.25;;;12.89;100.00
44765;BME280;30484;52.382;5.260;2023-02-10T12:15:42;103686.06;;;12.64;100.00
44765;BME280;30484;52.382;5.260;2023-02-10T12:18:32;103678.94;;;12.62;100.00
44765;BME280;30484;52.382;5.260;2023-02-10T12:21:22;103692.03;;;12.85;100.00
44765;BME280;30484;52.382;5.260;2023-02-10T12:24:19;103693.09;;;12.73;100.00
44765;BME280;30484;52.382;5.260;2023-02-10T12:27:00;103679.59;;;12.77;100.00
44765;BME280;30484;52.382;5.260;2023-02-10T12:29:42;103689.41;;;12.80;100.00
44765;BME280;30484;52.382;5.260;2023-02-10T12:32:26;103687.06;;;12.54;100.00
44765;BME280;30484;52.382;5.260;2023-02-10T12:35:17;103676.34;;;12.54;100.00
44765;BME280;30484;52.382;5.260;2023-02-10T12:38:02;103674.59;;;12.50;100.00
44765;BME280;30484;52.382;5.260;2023-02-10T12:40:47;103672.66;;;12.61;100.00
44765;BME280;30484;52.382;5.260;2023-02-10T12:43:46;103649.97;;;12.21;100.00
44765;BME280;30484;52.382;5.260;2023-02-10T12:46:26;103649.72;;;12.40;100.00
44765;BME280;30484;52.382;5.260;2023-02-10T12:52:04;103635.59;;;12.24;100.00
44765;BME280;30484;52.382;5.260;2023-02-10T12:54:42;103640.72;;;12.42;100.00
44765;BME280;30484;52.382;5.260;2023-02-10T12:57:18;103637.84;;;12.58;100.00
44765;BME280;30484;52.382;5.260;2023-02-10T12:59:56;103618.28;;;12.51;100.00
44765;BME280;30484;52.382;5.260;2023-02-10T13:02:36;103605.63;;;12.59;100.00
44765;BME280;30484;52.382;5.260;2023-02-10T13:05:12;103598.72;;;12.43;100.00
44765;BME280;30484;52.382;5.260;2023-02-10T13:07:48;103588.63;;;12.60;100.00
44765;BME280;30484;52.382;5.260;2023-02-10T13:10:24;103581.34;;;12.70;100.00
44765;BME280;30484;52.382;5.260;2023-02-10T13:12:59;103596.66;;;12.62;100.00
44765;BME280;30484;52.382;5.260;2023-02-10T13:15:35;103601.88;;;12.73;100.00
44765;BME280;30484;52.382;5.260;2023-02-10T13:18:17;103593.53;;;12.31;100.00
44765;BME280;30484;52.382;5.260;2023-02-10T13:20:58;103589.38;;;12.72;100.00
44765;BME280;30484;52.382;5.260;2023-02-10T13:23:38;103587.53;;;12.75;100.00